Document Center

Browse Documents
Browse All |  Home
Documents 1-50 of 96
Date Type Title Views Size Info
04/02/2018 pdf 2018 March Calls for Service 11 2,778 KB Details icon
03/07/2018 pdf 2018 February Crash Comparison 37 378 KB Details icon
03/07/2018 pdf 2018 January Crash Comparison 35 386 KB Details icon
03/01/2018 pdf 2018 February Calls for Service 40 3,390 KB Details icon
02/06/2018 pdf 2017 Annual Report 81 6,567 KB Details icon
02/01/2018 pdf 2018 January Calls for Service 58 3,091 KB Details icon
01/23/2018 pdf Racist Banners at Unitarian Universalist Church 83 678 KB Details icon
01/19/2018 pdf Year End Traffic Report for 2017 48 1,262 KB Details icon
01/08/2018 pdf 2017 December Monthly Report-Chief 106 673 KB Details icon
01/04/2018 pdf 2017 December Crash Comparison 43 3,208 KB Details icon
01/03/2018 pdf 2017 December Calls for Service 105 3,208 KB Details icon
12/04/2017 pdf 2017 November Crash Comparison 36 361 KB Details icon
12/04/2017 pdf 2017 November Monthly Report-Chief 92 751 KB Details icon
12/01/2017 pdf 2017 November Calls for Service 108 2,748 KB Details icon
11/27/2017 pdf Purdue vs. Indiana Weekend 53 1,451 KB Details icon
11/07/2017 pdf 2017 October Crash Comparison 36 408 KB Details icon
11/07/2017 pdf Purdue vs. Illinois Weekend 62 1,726 KB Details icon
11/01/2017 pdf 2017 October Calls for Service 34 2,957 KB Details icon
10/31/2017 pdf Know Your Limit 34 488 KB Details icon
10/31/2017 pdf Purdue vs. Nebraska Weekend 55 1,631 KB Details icon
10/10/2017 docx Purdue vs. Minnesota Weekend 63 12 KB Details icon
10/04/2017 pdf 2017 September Crash Comparison 58 393 KB Details icon
10/02/2017 pdf 2017 September Monthly Report-Chief 91 643 KB Details icon
10/02/2017 pdf 2017 September Calls for Service 55 3,485 KB Details icon
09/25/2017 pdf Purdue vs. Michigan Weekend 99 1,588 KB Details icon
09/11/2017 pdf Purdue vs. Ohio Weekend 120 482 KB Details icon
09/07/2017 pdf 2017 August Crash Comparison 49 375 KB Details icon
09/06/2017 pdf 2017 August Monthly Report-Chief 89 644 KB Details icon
09/06/2017 pdf 2017 August Calls for Service 54 3,336 KB Details icon
08/16/2017 pdf Suspect arrested in stabbing 90 518 KB Details icon
08/07/2017 pdf 2017 July Monthly Report-Chief 79 659 KB Details icon
08/01/2017 pdf 2017 July Calls for Service 65 3,124 KB Details icon
07/11/2017 pdf 2017 June Calls for Service 82 3,185 KB Details icon
06/06/2017 pdf 2017 May Crash Comparison 100 382 KB Details icon
06/06/2017 pdf 2017 May Monthly Report-Chief 139 707 KB Details icon
06/01/2017 pdf 2017 May Calls for Service 192 3,318 KB Details icon
05/22/2017 pdf Press Release-Attempted Robbery 249 582 KB Details icon
05/17/2017 pdf 2017 March Crash Comparison 124 380 KB Details icon
05/17/2017 pdf 2017 April Monthly Report-Chief 275 581 KB Details icon
05/17/2017 pdf 2017 April Crash Comparison 200 389 KB Details icon
05/01/2017 pdf 2017 April Calls for Service 160 3,015 KB Details icon
04/24/2017 pdf 2017 Grand Prix Weekend 217 1,456 KB Details icon
04/03/2017 pdf 2017 March Calls for Service 185 2,980 KB Details icon
03/06/2017 pdf 2017 February Crash Comparison 157 373 KB Details icon
03/06/2017 pdf 2017 February Monthly Report-Chief 198 738 KB Details icon
03/01/2017 pdf 2017 February Calls for Service 143 3,466 KB Details icon
02/06/2017 pdf 2017 January Crash Comparison 158 371 KB Details icon
02/01/2017 pdf 2017 January Calls for Service 196 2,963 KB Details icon
01/26/2017 pdf 2016 Annual Report 377 6,679 KB Details icon
01/19/2017 pdf 2016 December Crash Comparison 137 381 KB Details icon
Documents 1-50 of 96